This is the latest recevied weather packets stored in our database for station/object DG8SF-13. If no packets are shown the sender has not sent any weather packets the latest 1 day(s).
| Time | Temp. | Humidity | Pressure | Rain* | Wind** | Luminosity | Snow |
|---|---|---|---|---|---|---|---|
| 1778085462 | 11.11° C | 94% | 1006.7 hPa | 4.83 mm | - | - | - |
| 1778085148 | 11.11° C | 94% | 1006.6 hPa | 4.83 mm | - | - | - |
| 1778083590 | 11.11° C | 93% | 1006.4 hPa | 4.06 mm | - | - | - |
| 1778082953 | 11.67° C | 91% | 1006.4 hPa | 3.3 mm | - | - | - |
| 1778082018 | 12.78° C | 83% | 1005.8 hPa | 0.51 mm | - | - | - |
| 1778081707 | 13.33° C | 76% | 1005.5 hPa | 0 mm | - | - | - |
| 1778081392 | 14.44° C | 70% | 1005 hPa | 0 mm | - | - | - |
| 1778081081 | 16.11° C | 65% | 1004.9 hPa | 0 mm | - | - | - |
| 1778080768 | 16.67° C | 60% | 1004.6 hPa | 0 mm | - | - | - |
| 1778080146 | 18.33° C | 55% | 1004.1 hPa | 0 mm | - | - | - |
| 1778079521 | 20° C | 52% | 1004.2 hPa | 0 mm | - | - | - |
| 1778079210 | 20.56° C | 53% | 1004.2 hPa | 0 mm | - | - | - |
| 1778078584 | 20.56° C | 55% | 1004.4 hPa | 0 mm | - | - | - |
| 1778077963 | 21.11° C | 55% | 1004.2 hPa | 0 mm | - | - | - |
| 1778076090 | 18.33° C | 59% | 1004.5 hPa | 0 mm | - | - | - |
| 1778075776 | 18.89° C | 60% | 1004.4 hPa | 0 mm | - | - | - |
| 1778073906 | 18.33° C | 58% | 1004.7 hPa | 0 mm | - | - | - |
| 1778072973 | 18.89° C | 58% | 1004.5 hPa | 0 mm | - | - | - |
| 1778072034 | 19.44° C | 56% | 1004.5 hPa | 0 mm | - | - | - |
| 1778070785 | 18.33° C | 56% | 1004.6 hPa | 0 mm | - | - | - |
| 1778070160 | 18.89° C | 55% | 1004.5 hPa | 0 mm | - | - | - |
| 1778069851 | 18.33° C | 56% | 1004.5 hPa | 0 mm | - | - | - |
| 1778069536 | 18.33° C | 57% | 1004.6 hPa | 0 mm | - | - | - |
| 1778068289 | 18.89° C | 54% | 1004.7 hPa | 0 mm | - | - | - |
| 1778065793 | 17.78° C | 58% | 1004.9 hPa | 0 mm | - | - | - |
* Rain latest hour (hover to see other rain measurements)
** Current wind speed in m/s (hover to see current wind gust speed)